sensor_id;sensor_type;location;lat;lon;timestamp;P1;durP1;ratioP1;P2;durP2;ratioP2
26082;SDS011;13848;49.018;12.078;2023-03-01T00:01:12;20.40;;;11.65;;
26082;SDS011;13848;49.018;12.078;2023-03-01T00:03:38;18.92;;;11.43;;
26082;SDS011;13848;49.018;12.078;2023-03-01T00:06:05;22.65;;;12.20;;
26082;SDS011;13848;49.018;12.078;2023-03-01T00:08:32;20.42;;;11.27;;
26082;SDS011;13848;49.018;12.078;2023-03-01T00:11:04;22.02;;;11.65;;
26082;SDS011;13848;49.018;12.078;2023-03-01T00:13:33;22.58;;;11.93;;
26082;SDS011;13848;49.018;12.078;2023-03-01T00:16:01;20.67;;;11.55;;
26082;SDS011;13848;49.018;12.078;2023-03-01T00:18:28;22.23;;;11.75;;
26082;SDS011;13848;49.018;12.078;2023-03-01T00:20:54;26.98;;;12.48;;
26082;SDS011;13848;49.018;12.078;2023-03-01T00:23:21;20.35;;;11.43;;
26082;SDS011;13848;49.018;12.078;2023-03-01T00:25:48;25.48;;;12.35;;
26082;SDS011;13848;49.018;12.078;2023-03-01T00:28:15;24.15;;;12.15;;
26082;SDS011;13848;49.018;12.078;2023-03-01T00:30:42;23.70;;;12.15;;
26082;SDS011;13848;49.018;12.078;2023-03-01T00:33:08;24.58;;;12.32;;
26082;SDS011;13848;49.018;12.078;2023-03-01T00:35:34;20.73;;;12.32;;
26082;SDS011;13848;49.018;12.078;2023-03-01T00:38:00;23.27;;;11.30;;
26082;SDS011;13848;49.018;12.078;2023-03-01T00:40:27;22.10;;;12.00;;
26082;SDS011;13848;49.018;12.078;2023-03-01T00:42:54;21.15;;;12.15;;
26082;SDS011;13848;49.018;12.078;2023-03-01T00:45:22;23.88;;;12.13;;
26082;SDS011;13848;49.018;12.078;2023-03-01T00:47:49;26.35;;;12.35;;
26082;SDS011;13848;49.018;12.078;2023-03-01T00:50:16;25.25;;;12.88;;
26082;SDS011;13848;49.018;12.078;2023-03-01T00:52:42;25.50;;;12.63;;
26082;SDS011;13848;49.018;12.078;2023-03-01T00:55:08;25.83;;;12.40;;
26082;SDS011;13848;49.018;12.078;2023-03-01T00:57:35;24.50;;;12.10;;
26082;SDS011;13848;49.018;12.078;2023-03-01T01:00:02;21.13;;;12.07;;
26082;SDS011;13848;49.018;12.078;2023-03-01T01:02:31;22.90;;;11.98;;
26082;SDS011;13848;49.018;12.078;2023-03-01T01:04:58;22.65;;;11.98;;
26082;SDS011;13848;49.018;12.078;2023-03-01T01:07:24;26.85;;;12.88;;
26082;SDS011;13848;49.018;12.078;2023-03-01T01:09:50;23.98;;;12.15;;
26082;SDS011;13848;49.018;12.078;2023-03-01T01:12:16;21.63;;;11.40;;
26082;SDS011;13848;49.018;12.078;2023-03-01T01:14:42;24.25;;;11.70;;
26082;SDS011;13848;49.018;12.078;2023-03-01T01:17:08;23.60;;;11.95;;
26082;SDS011;13848;49.018;12.078;2023-03-01T01:19:35;24.15;;;12.52;;
26082;SDS011;13848;49.018;12.078;2023-03-01T01:22:01;24.00;;;12.48;;
26082;SDS011;13848;49.018;12.078;2023-03-01T01:24:27;20.75;;;11.30;;
26082;SDS011;13848;49.018;12.078;2023-03-01T01:26:53;22.48;;;12.00;;
26082;SDS011;13848;49.018;12.078;2023-03-01T01:29:19;23.10;;;11.60;;
26082;SDS011;13848;49.018;12.078;2023-03-01T01:31:45;24.02;;;11.73;;
26082;SDS011;13848;49.018;12.078;2023-03-01T01:34:13;26.13;;;11.55;;
26082;SDS011;13848;49.018;12.078;2023-03-01T01:36:41;19.92;;;11.38;;
26082;SDS011;13848;49.018;12.078;2023-03-01T01:39:08;24.73;;;11.27;;
26082;SDS011;13848;49.018;12.078;2023-03-01T01:41:34;21.23;;;11.43;;
26082;SDS011;13848;49.018;12.078;2023-03-01T01:44:13;20.58;;;11.60;;
26082;SDS011;13848;49.018;12.078;2023-03-01T01:46:42;20.83;;;11.88;;
26082;SDS011;13848;49.018;12.078;2023-03-01T01:49:23;24.23;;;11.75;;
26082;SDS011;13848;49.018;12.078;2023-03-01T01:51:57;22.83;;;11.88;;
26082;SDS011;13848;49.018;12.078;2023-03-01T01:54:29;24.20;;;11.75;;
26082;SDS011;13848;49.018;12.078;2023-03-01T01:57:03;21.38;;;11.40;;
26082;SDS011;13848;49.018;12.078;2023-03-01T01:59:34;24.73;;;12.15;;
26082;SDS011;13848;49.018;12.078;2023-03-01T02:02:02;25.25;;;11.93;;
26082;SDS011;13848;49.018;12.078;2023-03-01T02:04:29;23.58;;;12.25;;
26082;SDS011;13848;49.018;12.078;2023-03-01T02:06:58;24.20;;;12.13;;
26082;SDS011;13848;49.018;12.078;2023-03-01T02:09:31;24.10;;;11.68;;
26082;SDS011;13848;49.018;12.078;2023-03-01T02:11:57;22.67;;;11.63;;
26082;SDS011;13848;49.018;12.078;2023-03-01T02:14:24;25.02;;;12.57;;
26082;SDS011;13848;49.018;12.078;2023-03-01T02:16:50;23.25;;;11.52;;
26082;SDS011;13848;49.018;12.078;2023-03-01T02:19:19;20.20;;;11.20;;
26082;SDS011;13848;49.018;12.078;2023-03-01T02:21:58;27.88;;;12.23;;
26082;SDS011;13848;49.018;12.078;2023-03-01T02:24:35;25.23;;;11.57;;
26082;SDS011;13848;49.018;12.078;2023-03-01T02:27:09;22.33;;;11.85;;
26082;SDS011;13848;49.018;12.078;2023-03-01T02:29:36;21.40;;;11.38;;
26082;SDS011;13848;49.018;12.078;2023-03-01T02:32:03;20.02;;;11.15;;
26082;SDS011;13848;49.018;12.078;2023-03-01T02:34:30;23.70;;;12.18;;
26082;SDS011;13848;49.018;12.078;2023-03-01T02:36:59;21.10;;;11.25;;
26082;SDS011;13848;49.018;12.078;2023-03-01T02:39:28;23.70;;;11.55;;
26082;SDS011;13848;49.018;12.078;2023-03-01T02:41:58;23.73;;;11.98;;
26082;SDS011;13848;49.018;12.078;2023-03-01T02:44:24;24.17;;;11.82;;
26082;SDS011;13848;49.018;12.078;2023-03-01T02:46:52;23.95;;;11.88;;
26082;SDS011;13848;49.018;12.078;2023-03-01T02:49:23;23.83;;;11.95;;
26082;SDS011;13848;49.018;12.078;2023-03-01T02:54:57;23.60;;;12.15;;
26082;SDS011;13848;49.018;12.078;2023-03-01T02:57:26;22.08;;;11.30;;
26082;SDS011;13848;49.018;12.078;2023-03-01T02:59:53;21.58;;;11.38;;
26082;SDS011;13848;49.018;12.078;2023-03-01T03:02:22;19.17;;;11.57;;
26082;SDS011;13848;49.018;12.078;2023-03-01T03:04:50;22.23;;;11.30;;
26082;SDS011;13848;49.018;12.078;2023-03-01T03:07:15;26.00;;;11.60;;
26082;SDS011;13848;49.018;12.078;2023-03-01T03:09:41;25.48;;;12.38;;
26082;SDS011;13848;49.018;12.078;2023-03-01T03:12:08;27.25;;;12.30;;
26082;SDS011;13848;49.018;12.078;2023-03-01T03:14:35;22.90;;;11.38;;
26082;SDS011;13848;49.018;12.078;2023-03-01T03:17:01;19.63;;;10.77;;
26082;SDS011;13848;49.018;12.078;2023-03-01T03:19:29;22.92;;;11.23;;
26082;SDS011;13848;49.018;12.078;2023-03-01T03:21:54;22.42;;;11.35;;
26082;SDS011;13848;49.018;12.078;2023-03-01T03:24:20;24.88;;;11.65;;
26082;SDS011;13848;49.018;12.078;2023-03-01T03:26:46;24.08;;;11.80;;
26082;SDS011;13848;49.018;12.078;2023-03-01T03:29:12;24.20;;;11.95;;
26082;SDS011;13848;49.018;12.078;2023-03-01T03:31:38;24.50;;;11.85;;
26082;SDS011;13848;49.018;12.078;2023-03-01T03:34:04;24.20;;;11.82;;
26082;SDS011;13848;49.018;12.078;2023-03-01T03:36:31;23.35;;;11.55;;
26082;SDS011;13848;49.018;12.078;2023-03-01T03:38:57;23.50;;;11.60;;
26082;SDS011;13848;49.018;12.078;2023-03-01T03:41:23;22.27;;;12.02;;
26082;SDS011;13848;49.018;12.078;2023-03-01T03:43:49;24.00;;;11.60;;
26082;SDS011;13848;49.018;12.078;2023-03-01T03:46:15;23.08;;;11.23;;
26082;SDS011;13848;49.018;12.078;2023-03-01T03:48:41;21.58;;;11.50;;
26082;SDS011;13848;49.018;12.078;2023-03-01T03:51:09;22.67;;;11.50;;
26082;SDS011;13848;49.018;12.078;2023-03-01T03:53:37;22.17;;;10.98;;
26082;SDS011;13848;49.018;12.078;2023-03-01T03:56:04;21.98;;;11.98;;
26082;SDS011;13848;49.018;12.078;2023-03-01T03:58:31;24.48;;;12.32;;
26082;SDS011;13848;49.018;12.078;2023-03-01T04:00:57;27.00;;;12.55;;
26082;SDS011;13848;49.018;12.078;2023-03-01T04:03:24;23.38;;;12.07;;
26082;SDS011;13848;49.018;12.078;2023-03-01T04:05:51;24.60;;;11.32;;
26082;SDS011;13848;49.018;12.078;2023-03-01T04:08:18;21.23;;;11.23;;
26082;SDS011;13848;49.018;12.078;2023-03-01T04:10:45;23.20;;;10.93;;
26082;SDS011;13848;49.018;12.078;2023-03-01T04:13:14;21.65;;;10.80;;
26082;SDS011;13848;49.018;12.078;2023-03-01T04:15:41;22.83;;;11.13;;
26082;SDS011;13848;49.018;12.078;2023-03-01T04:18:08;19.60;;;10.77;;
26082;SDS011;13848;49.018;12.078;2023-03-01T04:20:37;25.17;;;12.43;;
26082;SDS011;13848;49.018;12.078;2023-03-01T04:23:04;21.75;;;11.40;;
26082;SDS011;13848;49.018;12.078;2023-03-01T04:25:31;22.75;;;11.85;;
26082;SDS011;13848;49.018;12.078;2023-03-01T04:27:58;22.65;;;11.45;;
26082;SDS011;13848;49.018;12.078;2023-03-01T04:30:24;26.00;;;11.98;;
26082;SDS011;13848;49.018;12.078;2023-03-01T04:32:50;23.55;;;11.38;;
26082;SDS011;13848;49.018;12.078;2023-03-01T04:35:16;23.48;;;12.15;;
26082;SDS011;13848;49.018;12.078;2023-03-01T04:37:42;25.58;;;12.20;;
26082;SDS011;13848;49.018;12.078;2023-03-01T04:40:09;25.85;;;11.90;;
26082;SDS011;13848;49.018;12.078;2023-03-01T04:42:36;24.13;;;11.70;;
26082;SDS011;13848;49.018;12.078;2023-03-01T04:45:03;21.13;;;11.32;;
26082;SDS011;13848;49.018;12.078;2023-03-01T04:47:30;22.80;;;11.82;;
26082;SDS011;13848;49.018;12.078;2023-03-01T04:49:56;26.30;;;12.00;;
26082;SDS011;13848;49.018;12.078;2023-03-01T04:52:22;24.50;;;11.70;;
26082;SDS011;13848;49.018;12.078;2023-03-01T04:54:48;26.65;;;12.40;;
26082;SDS011;13848;49.018;12.078;2023-03-01T04:57:14;25.27;;;12.25;;
26082;SDS011;13848;49.018;12.078;2023-03-01T04:59:40;23.33;;;11.65;;
26082;SDS011;13848;49.018;12.078;2023-03-01T05:02:07;28.88;;;12.15;;
26082;SDS011;13848;49.018;12.078;2023-03-01T05:04:33;24.63;;;12.68;;
26082;SDS011;13848;49.018;12.078;2023-03-01T05:06:59;22.50;;;11.25;;
26082;SDS011;13848;49.018;12.078;2023-03-01T05:09:25;22.85;;;11.63;;
26082;SDS011;13848;49.018;12.078;2023-03-01T05:11:51;24.73;;;12.07;;
26082;SDS011;13848;49.018;12.078;2023-03-01T05:14:17;21.52;;;11.18;;
26082;SDS011;13848;49.018;12.078;2023-03-01T05:16:42;23.85;;;12.43;;
26082;SDS011;13848;49.018;12.078;2023-03-01T05:19:10;21.52;;;11.63;;
26082;SDS011;13848;49.018;12.078;2023-03-01T05:21:36;24.27;;;11.50;;
26082;SDS011;13848;49.018;12.078;2023-03-01T05:24:02;24.88;;;12.10;;
26082;SDS011;13848;49.018;12.078;2023-03-01T05:26:28;26.45;;;12.65;;
26082;SDS011;13848;49.018;12.078;2023-03-01T05:28:54;24.13;;;11.95;;
26082;SDS011;13848;49.018;12.078;2023-03-01T05:31:20;23.70;;;11.52;;
26082;SDS011;13848;49.018;12.078;2023-03-01T05:33:46;25.70;;;12.40;;
26082;SDS011;13848;49.018;12.078;2023-03-01T05:36:13;24.10;;;12.75;;
26082;SDS011;13848;49.018;12.078;2023-03-01T05:38:39;24.55;;;11.75;;
26082;SDS011;13848;49.018;12.078;2023-03-01T05:41:05;24.77;;;12.07;;
26082;SDS011;13848;49.018;12.078;2023-03-01T05:43:40;21.70;;;11.60;;
26082;SDS011;13848;49.018;12.078;2023-03-01T05:46:05;21.73;;;11.88;;
26082;SDS011;13848;49.018;12.078;2023-03-01T05:48:31;26.45;;;12.23;;
26082;SDS011;13848;49.018;12.078;2023-03-01T05:50:59;31.65;;;12.50;;
26082;SDS011;13848;49.018;12.078;2023-03-01T05:53:26;29.92;;;13.07;;
26082;SDS011;13848;49.018;12.078;2023-03-01T05:55:52;33.15;;;14.32;;
26082;SDS011;13848;49.018;12.078;2023-03-01T05:58:19;28.42;;;13.77;;
26082;SDS011;13848;49.018;12.078;2023-03-01T06:00:46;25.25;;;12.88;;
26082;SDS011;13848;49.018;12.078;2023-03-01T06:03:14;23.80;;;12.85;;
26082;SDS011;13848;49.018;12.078;2023-03-01T06:05:42;23.88;;;12.52;;
26082;SDS011;13848;49.018;12.078;2023-03-01T06:08:09;22.08;;;11.77;;
26082;SDS011;13848;49.018;12.078;2023-03-01T06:10:37;25.85;;;12.77;;
26082;SDS011;13848;49.018;12.078;2023-03-01T06:13:03;25.40;;;12.30;;
26082;SDS011;13848;49.018;12.078;2023-03-01T06:15:29;26.33;;;12.45;;
26082;SDS011;13848;49.018;12.078;2023-03-01T06:17:55;25.90;;;12.75;;
26082;SDS011;13848;49.018;12.078;2023-03-01T06:20:22;23.58;;;13.23;;
26082;SDS011;13848;49.018;12.078;2023-03-01T06:22:50;24.42;;;12.40;;
26082;SDS011;13848;49.018;12.078;2023-03-01T06:25:17;24.52;;;12.65;;
26082;SDS011;13848;49.018;12.078;2023-03-01T06:27:46;26.70;;;12.90;;
26082;SDS011;13848;49.018;12.078;2023-03-01T06:30:13;28.02;;;12.52;;
26082;SDS011;13848;49.018;12.078;2023-03-01T06:32:43;26.63;;;12.90;;
26082;SDS011;13848;49.018;12.078;2023-03-01T06:35:09;27.95;;;12.55;;
26082;SDS011;13848;49.018;12.078;2023-03-01T06:37:36;28.90;;;13.25;;
26082;SDS011;13848;49.018;12.078;2023-03-01T06:40:03;27.63;;;13.20;;
26082;SDS011;13848;49.018;12.078;2023-03-01T06:42:29;26.70;;;13.05;;
26082;SDS011;13848;49.018;12.078;2023-03-01T06:44:56;27.83;;;13.55;;
26082;SDS011;13848;49.018;12.078;2023-03-01T06:47:22;30.17;;;13.18;;
26082;SDS011;13848;49.018;12.078;2023-03-01T06:49:48;29.60;;;13.27;;
26082;SDS011;13848;49.018;12.078;2023-03-01T06:52:14;26.23;;;13.98;;
26082;SDS011;13848;49.018;12.078;2023-03-01T06:54:40;27.02;;;13.68;;
26082;SDS011;13848;49.018;12.078;2023-03-01T06:57:06;23.60;;;13.13;;
26082;SDS011;13848;49.018;12.078;2023-03-01T06:59:32;29.98;;;15.15;;
26082;SDS011;13848;49.018;12.078;2023-03-01T07:01:59;30.83;;;14.35;;
26082;SDS011;13848;49.018;12.078;2023-03-01T07:04:25;25.33;;;12.50;;
26082;SDS011;13848;49.018;12.078;2023-03-01T07:06:51;24.70;;;12.77;;
26082;SDS011;13848;49.018;12.078;2023-03-01T07:09:17;28.13;;;13.57;;
26082;SDS011;13848;49.018;12.078;2023-03-01T07:11:43;23.23;;;12.90;;
26082;SDS011;13848;49.018;12.078;2023-03-01T07:14:08;26.30;;;13.57;;
26082;SDS011;13848;49.018;12.078;2023-03-01T07:16:34;26.52;;;14.48;;
26082;SDS011;13848;49.018;12.078;2023-03-01T07:19:02;24.90;;;12.85;;
26082;SDS011;13848;49.018;12.078;2023-03-01T07:21:28;25.88;;;13.25;;
26082;SDS011;13848;49.018;12.078;2023-03-01T07:23:53;25.95;;;13.35;;
26082;SDS011;13848;49.018;12.078;2023-03-01T07:26:19;24.88;;;14.07;;
26082;SDS011;13848;49.018;12.078;2023-03-01T07:28:45;23.52;;;13.35;;
26082;SDS011;13848;49.018;12.078;2023-03-01T07:31:11;26.08;;;13.50;;
26082;SDS011;13848;49.018;12.078;2023-03-01T07:33:37;26.55;;;12.80;;
26082;SDS011;13848;49.018;12.078;2023-03-01T07:36:05;30.88;;;14.15;;
26082;SDS011;13848;49.018;12.078;2023-03-01T07:38:32;28.88;;;14.27;;
26082;SDS011;13848;49.018;12.078;2023-03-01T07:40:58;29.77;;;14.68;;
26082;SDS011;13848;49.018;12.078;2023-03-01T07:43:25;25.00;;;13.75;;
26082;SDS011;13848;49.018;12.078;2023-03-01T07:45:51;24.83;;;14.07;;
26082;SDS011;13848;49.018;12.078;2023-03-01T07:48:17;24.23;;;14.05;;
26082;SDS011;13848;49.018;12.078;2023-03-01T07:50:44;24.73;;;13.88;;
26082;SDS011;13848;49.018;12.078;2023-03-01T07:53:11;24.73;;;13.48;;
26082;SDS011;13848;49.018;12.078;2023-03-01T07:55:37;27.77;;;13.55;;
26082;SDS011;13848;49.018;12.078;2023-03-01T07:58:03;25.38;;;13.73;;
26082;SDS011;13848;49.018;12.078;2023-03-01T08:00:29;26.60;;;14.55;;
26082;SDS011;13848;49.018;12.078;2023-03-01T08:02:58;25.05;;;14.82;;
26082;SDS011;13848;49.018;12.078;2023-03-01T08:05:24;26.80;;;14.02;;
26082;SDS011;13848;49.018;12.078;2023-03-01T08:07:50;25.30;;;14.20;;
26082;SDS011;13848;49.018;12.078;2023-03-01T08:10:18;24.58;;;13.43;;
26082;SDS011;13848;49.018;12.078;2023-03-01T08:12:44;29.08;;;14.25;;
26082;SDS011;13848;49.018;12.078;2023-03-01T08:15:10;23.25;;;13.57;;
26082;SDS011;13848;49.018;12.078;2023-03-01T08:17:36;26.08;;;14.00;;
26082;SDS011;13848;49.018;12.078;2023-03-01T08:20:02;24.92;;;14.32;;
26082;SDS011;13848;49.018;12.078;2023-03-01T08:22:29;23.13;;;13.13;;
26082;SDS011;13848;49.018;12.078;2023-03-01T08:24:55;21.52;;;13.40;;
26082;SDS011;13848;49.018;12.078;2023-03-01T08:27:22;24.20;;;13.85;;
26082;SDS011;13848;49.018;12.078;2023-03-01T08:29:48;23.95;;;13.88;;
26082;SDS011;13848;49.018;12.078;2023-03-01T08:32:14;23.75;;;14.05;;
26082;SDS011;13848;49.018;12.078;2023-03-01T08:34:40;20.17;;;12.57;;
26082;SDS011;13848;49.018;12.078;2023-03-01T08:37:06;25.45;;;13.40;;
26082;SDS011;13848;49.018;12.078;2023-03-01T08:39:32;24.98;;;13.75;;
26082;SDS011;13848;49.018;12.078;2023-03-01T08:41:58;24.63;;;13.05;;
26082;SDS011;13848;49.018;12.078;2023-03-01T08:44:25;22.38;;;12.88;;
26082;SDS011;13848;49.018;12.078;2023-03-01T08:46:51;22.67;;;13.18;;
26082;SDS011;13848;49.018;12.078;2023-03-01T08:49:17;22.95;;;13.35;;
26082;SDS011;13848;49.018;12.078;2023-03-01T08:51:45;26.45;;;13.50;;
26082;SDS011;13848;49.018;12.078;2023-03-01T08:54:12;25.23;;;12.93;;
26082;SDS011;13848;49.018;12.078;2023-03-01T08:56:39;23.77;;;13.00;;
26082;SDS011;13848;49.018;12.078;2023-03-01T08:59:05;20.55;;;12.40;;
26082;SDS011;13848;49.018;12.078;2023-03-01T09:01:33;19.52;;;11.43;;
26082;SDS011;13848;49.018;12.078;2023-03-01T09:03:59;22.00;;;12.40;;
26082;SDS011;13848;49.018;12.078;2023-03-01T09:06:25;20.30;;;12.25;;
26082;SDS011;13848;49.018;12.078;2023-03-01T09:08:51;23.58;;;12.98;;
26082;SDS011;13848;49.018;12.078;2023-03-01T09:11:18;22.17;;;13.18;;
26082;SDS011;13848;49.018;12.078;2023-03-01T09:13:45;22.05;;;12.77;;
26082;SDS011;13848;49.018;12.078;2023-03-01T09:16:13;22.95;;;12.82;;
26082;SDS011;13848;49.018;12.078;2023-03-01T09:18:41;24.42;;;13.50;;
26082;SDS011;13848;49.018;12.078;2023-03-01T09:21:09;19.38;;;12.38;;
26082;SDS011;13848;49.018;12.078;2023-03-01T09:23:36;21.80;;;12.85;;
26082;SDS011;13848;49.018;12.078;2023-03-01T09:26:04;29.42;;;12.98;;
26082;SDS011;13848;49.018;12.078;2023-03-01T09:28:30;21.05;;;12.18;;
26082;SDS011;13848;49.018;12.078;2023-03-01T09:30:57;22.88;;;12.48;;
26082;SDS011;13848;49.018;12.078;2023-03-01T09:33:24;21.63;;;12.40;;
26082;SDS011;13848;49.018;12.078;2023-03-01T09:35:55;26.83;;;12.57;;
26082;SDS011;13848;49.018;12.078;2023-03-01T09:38:21;20.80;;;12.30;;
26082;SDS011;13848;49.018;12.078;2023-03-01T09:40:47;22.05;;;12.95;;
26082;SDS011;13848;49.018;12.078;2023-03-01T09:43:15;23.73;;;12.23;;
26082;SDS011;13848;49.018;12.078;2023-03-01T09:45:49;18.98;;;12.23;;
26082;SDS011;13848;49.018;12.078;2023-03-01T09:48:16;22.48;;;12.25;;
26082;SDS011;13848;49.018;12.078;2023-03-01T09:50:45;18.98;;;11.27;;
26082;SDS011;13848;49.018;12.078;2023-03-01T09:53:13;20.85;;;11.57;;
26082;SDS011;13848;49.018;12.078;2023-03-01T09:55:42;20.80;;;12.18;;
26082;SDS011;13848;49.018;12.078;2023-03-01T09:58:19;25.05;;;12.45;;
26082;SDS011;13848;49.018;12.078;2023-03-01T10:01:02;20.23;;;11.85;;
26082;SDS011;13848;49.018;12.078;2023-03-01T10:03:36;19.92;;;10.82;;
26082;SDS011;13848;49.018;12.078;2023-03-01T10:06:10;18.55;;;11.10;;
26082;SDS011;13848;49.018;12.078;2023-03-01T10:08:41;19.83;;;11.88;;
26082;SDS011;13848;49.018;12.078;2023-03-01T10:11:17;20.00;;;11.73;;
26082;SDS011;13848;49.018;12.078;2023-03-01T10:13:46;20.92;;;12.00;;
26082;SDS011;13848;49.018;12.078;2023-03-01T10:16:21;20.25;;;12.30;;
26082;SDS011;13848;49.018;12.078;2023-03-01T10:18:51;20.30;;;11.57;;
26082;SDS011;13848;49.018;12.078;2023-03-01T10:21:20;18.13;;;11.20;;
26082;SDS011;13848;49.018;12.078;2023-03-01T10:23:49;16.33;;;10.70;;
26082;SDS011;13848;49.018;12.078;2023-03-01T10:26:27;19.13;;;11.30;;
26082;SDS011;13848;49.018;12.078;2023-03-01T10:29:02;25.38;;;14.23;;
26082;SDS011;13848;49.018;12.078;2023-03-01T10:31:33;17.77;;;11.13;;
26082;SDS011;13848;49.018;12.078;2023-03-01T10:34:13;18.02;;;10.27;;
26082;SDS011;13848;49.018;12.078;2023-03-01T10:36:41;17.92;;;10.65;;
26082;SDS011;13848;49.018;12.078;2023-03-01T10:39:15;19.23;;;11.68;;
26082;SDS011;13848;49.018;12.078;2023-03-01T10:41:51;21.27;;;11.85;;
26082;SDS011;13848;49.018;12.078;2023-03-01T10:44:39;23.65;;;13.18;;
26082;SDS011;13848;49.018;12.078;2023-03-01T10:47:12;18.50;;;10.48;;
26082;SDS011;13848;49.018;12.078;2023-03-01T10:49:42;17.17;;;11.18;;
26082;SDS011;13848;49.018;12.078;2023-03-01T10:52:18;20.02;;;11.70;;
26082;SDS011;13848;49.018;12.078;2023-03-01T10:54:52;16.45;;;10.40;;
26082;SDS011;13848;49.018;12.078;2023-03-01T10:57:27;20.55;;;11.30;;
26082;SDS011;13848;49.018;12.078;2023-03-01T11:00:13;15.95;;;11.00;;
26082;SDS011;13848;49.018;12.078;2023-03-01T11:02:48;17.92;;;11.15;;
26082;SDS011;13848;49.018;12.078;2023-03-01T11:05:18;17.95;;;11.20;;
26082;SDS011;13848;49.018;12.078;2023-03-01T11:07:47;18.98;;;12.10;;
26082;SDS011;13848;49.018;12.078;2023-03-01T11:10:17;15.77;;;10.25;;
26082;SDS011;13848;49.018;12.078;2023-03-01T11:12:44;18.70;;;10.18;;
26082;SDS011;13848;49.018;12.078;2023-03-01T11:15:15;19.75;;;11.32;;
26082;SDS011;13848;49.018;12.078;2023-03-01T11:17:47;18.10;;;11.07;;
26082;SDS011;13848;49.018;12.078;2023-03-01T11:20:15;16.92;;;10.90;;
26082;SDS011;13848;49.018;12.078;2023-03-01T11:22:49;24.23;;;11.27;;
26082;SDS011;13848;49.018;12.078;2023-03-01T11:25:20;19.27;;;11.20;;
26082;SDS011;13848;49.018;12.078;2023-03-01T11:27:49;18.77;;;10.97;;
26082;SDS011;13848;49.018;12.078;2023-03-01T11:30:17;17.25;;;10.68;;
26082;SDS011;13848;49.018;12.078;2023-03-01T11:32:47;18.17;;;11.25;;
26082;SDS011;13848;49.018;12.078;2023-03-01T11:35:20;20.42;;;11.13;;
26082;SDS011;13848;49.018;12.078;2023-03-01T11:37:53;17.13;;;10.77;;
26082;SDS011;13848;49.018;12.078;2023-03-01T11:40:32;18.42;;;11.02;;
26082;SDS011;13848;49.018;12.078;2023-03-01T11:43:03;18.95;;;10.73;;
26082;SDS011;13848;49.018;12.078;2023-03-01T11:45:40;17.90;;;10.80;;
26082;SDS011;13848;49.018;12.078;2023-03-01T11:48:28;18.38;;;11.07;;
26082;SDS011;13848;49.018;12.078;2023-03-01T11:51:05;20.85;;;11.40;;
26082;SDS011;13848;49.018;12.078;2023-03-01T11:53:51;18.40;;;11.13;;
26082;SDS011;13848;49.018;12.078;2023-03-01T11:56:34;21.77;;;11.85;;
26082;SDS011;13848;49.018;12.078;2023-03-01T12:01:44;16.60;;;10.52;;
26082;SDS011;13848;49.018;12.078;2023-03-01T12:07:18;19.48;;;11.63;;
26082;SDS011;13848;49.018;12.078;2023-03-01T12:09:55;20.98;;;10.77;;
26082;SDS011;13848;49.018;12.078;2023-03-01T12:12:42;17.95;;;11.13;;
26082;SDS011;13848;49.018;12.078;2023-03-01T12:15:29;18.05;;;10.40;;
26082;SDS011;13848;49.018;12.078;2023-03-01T12:18:22;17.60;;;10.75;;
26082;SDS011;13848;49.018;12.078;2023-03-01T12:20:58;16.85;;;10.68;;
26082;SDS011;13848;49.018;12.078;2023-03-01T12:23:35;17.08;;;10.77;;
26082;SDS011;13848;49.018;12.078;2023-03-01T12:26:24;20.33;;;11.77;;
26082;SDS011;13848;49.018;12.078;2023-03-01T12:29:05;17.77;;;11.00;;
26082;SDS011;13848;49.018;12.078;2023-03-01T12:31:50;17.58;;;12.02;;
26082;SDS011;13848;49.018;12.078;2023-03-01T12:34:35;20.00;;;11.55;;
26082;SDS011;13848;49.018;12.078;2023-03-01T12:37:16;18.38;;;11.23;;
26082;SDS011;13848;49.018;12.078;2023-03-01T12:39:58;19.60;;;10.80;;
26082;SDS011;13848;49.018;12.078;2023-03-01T12:42:40;18.13;;;10.65;;
26082;SDS011;13848;49.018;12.078;2023-03-01T12:45:22;17.13;;;10.10;;
26082;SDS011;13848;49.018;12.078;2023-03-01T12:50:51;20.48;;;11.02;;
26082;SDS011;13848;49.018;12.078;2023-03-01T12:53:22;19.73;;;11.10;;
26082;SDS011;13848;49.018;12.078;2023-03-01T12:55:49;17.42;;;10.30;;
26082;SDS011;13848;49.018;12.078;2023-03-01T12:58:20;15.45;;;9.93;;
26082;SDS011;13848;49.018;12.078;2023-03-01T13:01:00;16.00;;;10.35;;
26082;SDS011;13848;49.018;12.078;2023-03-01T13:03:32;17.35;;;10.70;;
26082;SDS011;13848;49.018;12.078;2023-03-01T13:06:11;18.05;;;10.93;;
26082;SDS011;13848;49.018;12.078;2023-03-01T13:08:43;17.83;;;10.73;;
26082;SDS011;13848;49.018;12.078;2023-03-01T13:11:15;20.58;;;11.57;;
26082;SDS011;13848;49.018;12.078;2023-03-01T13:13:45;15.68;;;10.65;;
26082;SDS011;13848;49.018;12.078;2023-03-01T13:16:22;21.25;;;10.88;;
26082;SDS011;13848;49.018;12.078;2023-03-01T13:19:09;17.13;;;10.32;;
26082;SDS011;13848;49.018;12.078;2023-03-01T13:21:39;20.30;;;10.35;;
26082;SDS011;13848;49.018;12.078;2023-03-01T13:24:22;18.95;;;10.77;;
26082;SDS011;13848;49.018;12.078;2023-03-01T13:29:43;15.48;;;9.00;;
26082;SDS011;13848;49.018;12.078;2023-03-01T13:32:20;15.23;;;9.93;;
26082;SDS011;13848;49.018;12.078;2023-03-01T13:34:47;18.70;;;10.90;;
26082;SDS011;13848;49.018;12.078;2023-03-01T13:37:27;16.60;;;10.23;;
26082;SDS011;13848;49.018;12.078;2023-03-01T13:39:56;18.00;;;10.57;;
26082;SDS011;13848;49.018;12.078;2023-03-01T13:42:31;17.50;;;10.25;;
26082;SDS011;13848;49.018;12.078;2023-03-01T13:45:02;17.95;;;10.45;;
26082;SDS011;13848;49.018;12.078;2023-03-01T13:47:32;19.48;;;11.02;;
26082;SDS011;13848;49.018;12.078;2023-03-01T13:50:01;18.55;;;11.00;;
26082;SDS011;13848;49.018;12.078;2023-03-01T13:52:32;17.17;;;10.98;;
26082;SDS011;13848;49.018;12.078;2023-03-01T13:55:03;24.70;;;11.85;;
26082;SDS011;13848;49.018;12.078;2023-03-01T13:57:32;19.38;;;11.43;;
26082;SDS011;13848;49.018;12.078;2023-03-01T14:00:00;18.98;;;11.48;;
26082;SDS011;13848;49.018;12.078;2023-03-01T14:02:26;18.75;;;11.30;;
26082;SDS011;13848;49.018;12.078;2023-03-01T14:04:59;18.65;;;11.63;;
26082;SDS011;13848;49.018;12.078;2023-03-01T14:07:27;16.92;;;11.30;;
26082;SDS011;13848;49.018;12.078;2023-03-01T14:09:54;20.88;;;11.73;;
26082;SDS011;13848;49.018;12.078;2023-03-01T14:12:24;18.55;;;11.10;;
26082;SDS011;13848;49.018;12.078;2023-03-01T14:14:59;19.85;;;11.70;;
26082;SDS011;13848;49.018;12.078;2023-03-01T14:17:34;22.23;;;11.52;;
26082;SDS011;13848;49.018;12.078;2023-03-01T14:20:11;18.23;;;11.40;;
26082;SDS011;13848;49.018;12.078;2023-03-01T14:22:42;18.33;;;10.90;;
26082;SDS011;13848;49.018;12.078;2023-03-01T14:25:20;16.50;;;10.32;;
26082;SDS011;13848;49.018;12.078;2023-03-01T14:27:54;15.90;;;10.48;;
26082;SDS011;13848;49.018;12.078;2023-03-01T14:30:22;19.08;;;11.10;;
26082;SDS011;13848;49.018;12.078;2023-03-01T14:32:54;16.08;;;10.80;;
26082;SDS011;13848;49.018;12.078;2023-03-01T14:35:24;19.17;;;11.25;;